sensor_id;sensor_type;location;lat;lon;timestamp;P1;durP1;ratioP1;P2;durP2;ratioP2
18228;SDS011;9239;50.932;3.142;2022-09-09T00:01:58;4.10;;;1.70;;
18228;SDS011;9239;50.932;3.142;2022-09-09T00:04:30;4.20;;;1.80;;
18228;SDS011;9239;50.932;3.142;2022-09-09T00:07:00;2.70;;;2.10;;
18228;SDS011;9239;50.932;3.142;2022-09-09T00:09:33;7.10;;;2.50;;
18228;SDS011;9239;50.932;3.142;2022-09-09T00:12:10;3.40;;;1.98;;
18228;SDS011;9239;50.932;3.142;2022-09-09T00:14:41;4.07;;;1.95;;
18228;SDS011;9239;50.932;3.142;2022-09-09T00:17:16;4.60;;;1.98;;
18228;SDS011;9239;50.932;3.142;2022-09-09T00:19:53;2.97;;;1.75;;
18228;SDS011;9239;50.932;3.142;2022-09-09T00:22:27;4.68;;;2.00;;
18228;SDS011;9239;50.932;3.142;2022-09-09T00:24:57;3.72;;;1.58;;
18228;SDS011;9239;50.932;3.142;2022-09-09T00:27:38;2.70;;;1.52;;
18228;SDS011;9239;50.932;3.142;2022-09-09T00:30:13;2.53;;;1.77;;
18228;SDS011;9239;50.932;3.142;2022-09-09T00:32:44;3.70;;;1.70;;
18228;SDS011;9239;50.932;3.142;2022-09-09T00:35:14;4.32;;;1.55;;
18228;SDS011;9239;50.932;3.142;2022-09-09T00:37:44;4.43;;;1.75;;
18228;SDS011;9239;50.932;3.142;2022-09-09T00:40:17;8.02;;;1.50;;
18228;SDS011;9239;50.932;3.142;2022-09-09T00:42:51;6.18;;;1.67;;
18228;SDS011;9239;50.932;3.142;2022-09-09T00:45:35;6.15;;;1.85;;
18228;SDS011;9239;50.932;3.142;2022-09-09T00:48:17;4.03;;;1.67;;
18228;SDS011;9239;50.932;3.142;2022-09-09T00:50:47;3.33;;;1.88;;
18228;SDS011;9239;50.932;3.142;2022-09-09T00:53:27;3.28;;;1.65;;
18228;SDS011;9239;50.932;3.142;2022-09-09T00:56:05;5.45;;;2.08;;
18228;SDS011;9239;50.932;3.142;2022-09-09T00:58:39;3.58;;;1.77;;
18228;SDS011;9239;50.932;3.142;2022-09-09T01:01:09;3.38;;;2.00;;
18228;SDS011;9239;50.932;3.142;2022-09-09T01:03:38;4.97;;;1.58;;
18228;SDS011;9239;50.932;3.142;2022-09-09T01:06:15;4.50;;;1.48;;
18228;SDS011;9239;50.932;3.142;2022-09-09T01:11:43;4.18;;;1.55;;
18228;SDS011;9239;50.932;3.142;2022-09-09T01:14:22;7.10;;;2.00;;
18228;SDS011;9239;50.932;3.142;2022-09-09T01:16:58;2.97;;;1.58;;
18228;SDS011;9239;50.932;3.142;2022-09-09T01:19:33;3.65;;;1.90;;
18228;SDS011;9239;50.932;3.142;2022-09-09T01:22:10;4.97;;;2.50;;
18228;SDS011;9239;50.932;3.142;2022-09-09T01:24:46;3.70;;;1.98;;
18228;SDS011;9239;50.932;3.142;2022-09-09T01:27:33;2.67;;;1.77;;
18228;SDS011;9239;50.932;3.142;2022-09-09T01:30:01;6.00;;;2.22;;
18228;SDS011;9239;50.932;3.142;2022-09-09T01:32:38;4.93;;;2.50;;
18228;SDS011;9239;50.932;3.142;2022-09-09T01:35:09;5.82;;;2.42;;
18228;SDS011;9239;50.932;3.142;2022-09-09T01:37:40;4.77;;;2.13;;
18228;SDS011;9239;50.932;3.142;2022-09-09T01:40:07;6.90;;;1.83;;
18228;SDS011;9239;50.932;3.142;2022-09-09T01:42:36;2.67;;;1.48;;
18228;SDS011;9239;50.932;3.142;2022-09-09T01:45:03;2.97;;;1.75;;
18228;SDS011;9239;50.932;3.142;2022-09-09T01:47:31;5.47;;;2.00;;
18228;SDS011;9239;50.932;3.142;2022-09-09T01:49:58;6.00;;;1.80;;
18228;SDS011;9239;50.932;3.142;2022-09-09T01:52:27;1.70;;;1.60;;
18228;SDS011;9239;50.932;3.142;2022-09-09T01:54:54;6.30;;;2.08;;
18228;SDS011;9239;50.932;3.142;2022-09-09T01:57:23;2.17;;;1.35;;
18228;SDS011;9239;50.932;3.142;2022-09-09T02:00:00;6.97;;;2.03;;
18228;SDS011;9239;50.932;3.142;2022-09-09T02:02:32;4.88;;;2.20;;
18228;SDS011;9239;50.932;3.142;2022-09-09T02:05:06;5.93;;;2.10;;
18228;SDS011;9239;50.932;3.142;2022-09-09T02:07:42;6.75;;;2.17;;
18228;SDS011;9239;50.932;3.142;2022-09-09T02:10:12;4.70;;;1.98;;
18228;SDS011;9239;50.932;3.142;2022-09-09T02:12:45;4.88;;;2.10;;
18228;SDS011;9239;50.932;3.142;2022-09-09T02:15:17;5.50;;;2.05;;
18228;SDS011;9239;50.932;3.142;2022-09-09T02:17:50;6.03;;;1.65;;
18228;SDS011;9239;50.932;3.142;2022-09-09T02:20:19;5.07;;;1.80;;
18228;SDS011;9239;50.932;3.142;2022-09-09T02:22:47;5.35;;;2.08;;
18228;SDS011;9239;50.932;3.142;2022-09-09T02:25:18;4.50;;;2.28;;
18228;SDS011;9239;50.932;3.142;2022-09-09T02:27:46;4.30;;;2.10;;
18228;SDS011;9239;50.932;3.142;2022-09-09T02:30:15;5.47;;;2.45;;
18228;SDS011;9239;50.932;3.142;2022-09-09T02:32:45;3.10;;;1.98;;
18228;SDS011;9239;50.932;3.142;2022-09-09T02:35:15;5.03;;;2.10;;
18228;SDS011;9239;50.932;3.142;2022-09-09T02:37:46;4.80;;;2.20;;
18228;SDS011;9239;50.932;3.142;2022-09-09T02:40:13;6.32;;;2.72;;
18228;SDS011;9239;50.932;3.142;2022-09-09T02:42:41;4.38;;;2.15;;
18228;SDS011;9239;50.932;3.142;2022-09-09T02:45:09;7.88;;;3.08;;
18228;SDS011;9239;50.932;3.142;2022-09-09T02:47:41;5.43;;;2.28;;
18228;SDS011;9239;50.932;3.142;2022-09-09T02:50:12;6.47;;;2.25;;
18228;SDS011;9239;50.932;3.142;2022-09-09T02:52:47;6.15;;;2.28;;
18228;SDS011;9239;50.932;3.142;2022-09-09T02:55:24;5.68;;;2.58;;
18228;SDS011;9239;50.932;3.142;2022-09-09T02:57:57;9.23;;;3.50;;
18228;SDS011;9239;50.932;3.142;2022-09-09T03:00:27;7.63;;;2.83;;
18228;SDS011;9239;50.932;3.142;2022-09-09T03:02:56;5.40;;;2.45;;
18228;SDS011;9239;50.932;3.142;2022-09-09T03:05:23;6.25;;;2.80;;
18228;SDS011;9239;50.932;3.142;2022-09-09T03:07:51;6.18;;;2.30;;
18228;SDS011;9239;50.932;3.142;2022-09-09T03:10:18;6.07;;;2.42;;
18228;SDS011;9239;50.932;3.142;2022-09-09T03:12:45;7.38;;;2.58;;
18228;SDS011;9239;50.932;3.142;2022-09-09T03:15:11;7.13;;;2.20;;
18228;SDS011;9239;50.932;3.142;2022-09-09T03:17:39;3.80;;;1.92;;
18228;SDS011;9239;50.932;3.142;2022-09-09T03:20:08;4.07;;;2.33;;
18228;SDS011;9239;50.932;3.142;2022-09-09T03:22:35;11.20;;;3.25;;
18228;SDS011;9239;50.932;3.142;2022-09-09T03:25:02;6.50;;;2.53;;
18228;SDS011;9239;50.932;3.142;2022-09-09T03:27:30;10.27;;;2.85;;
18228;SDS011;9239;50.932;3.142;2022-09-09T03:29:58;7.47;;;2.45;;
18228;SDS011;9239;50.932;3.142;2022-09-09T03:32:28;8.40;;;2.88;;
18228;SDS011;9239;50.932;3.142;2022-09-09T03:34:56;9.43;;;3.63;;
18228;SDS011;9239;50.932;3.142;2022-09-09T03:37:24;9.20;;;2.97;;
18228;SDS011;9239;50.932;3.142;2022-09-09T03:39:51;10.10;;;2.88;;
18228;SDS011;9239;50.932;3.142;2022-09-09T03:42:19;7.25;;;2.70;;
18228;SDS011;9239;50.932;3.142;2022-09-09T03:44:47;7.65;;;2.95;;
18228;SDS011;9239;50.932;3.142;2022-09-09T03:47:15;8.32;;;3.33;;
18228;SDS011;9239;50.932;3.142;2022-09-09T03:49:43;6.07;;;2.72;;
18228;SDS011;9239;50.932;3.142;2022-09-09T03:52:10;6.50;;;2.70;;
18228;SDS011;9239;50.932;3.142;2022-09-09T03:54:39;6.85;;;2.80;;
18228;SDS011;9239;50.932;3.142;2022-09-09T03:57:07;9.50;;;3.70;;
18228;SDS011;9239;50.932;3.142;2022-09-09T03:59:34;8.35;;;3.15;;
18228;SDS011;9239;50.932;3.142;2022-09-09T04:02:01;7.40;;;3.50;;
18228;SDS011;9239;50.932;3.142;2022-09-09T04:04:29;8.48;;;3.53;;
18228;SDS011;9239;50.932;3.142;2022-09-09T04:06:56;9.52;;;3.38;;
18228;SDS011;9239;50.932;3.142;2022-09-09T04:09:23;8.10;;;2.92;;
18228;SDS011;9239;50.932;3.142;2022-09-09T04:11:51;6.15;;;2.63;;
18228;SDS011;9239;50.932;3.142;2022-09-09T04:14:19;7.68;;;3.15;;
18228;SDS011;9239;50.932;3.142;2022-09-09T04:16:46;8.23;;;2.88;;
18228;SDS011;9239;50.932;3.142;2022-09-09T04:19:13;7.32;;;3.63;;
18228;SDS011;9239;50.932;3.142;2022-09-09T04:21:40;11.57;;;3.28;;
18228;SDS011;9239;50.932;3.142;2022-09-09T04:24:07;10.32;;;3.40;;
18228;SDS011;9239;50.932;3.142;2022-09-09T04:26:35;11.23;;;3.70;;
18228;SDS011;9239;50.932;3.142;2022-09-09T04:29:04;12.00;;;3.60;;
18228;SDS011;9239;50.932;3.142;2022-09-09T04:31:33;9.90;;;3.05;;
18228;SDS011;9239;50.932;3.142;2022-09-09T04:34:00;5.05;;;2.80;;
18228;SDS011;9239;50.932;3.142;2022-09-09T04:36:30;10.23;;;3.45;;
18228;SDS011;9239;50.932;3.142;2022-09-09T04:38:58;10.50;;;4.00;;
18228;SDS011;9239;50.932;3.142;2022-09-09T04:41:26;9.80;;;3.90;;
18228;SDS011;9239;50.932;3.142;2022-09-09T04:43:53;10.48;;;3.97;;
18228;SDS011;9239;50.932;3.142;2022-09-09T04:46:22;8.45;;;3.85;;
18228;SDS011;9239;50.932;3.142;2022-09-09T04:48:49;8.82;;;3.50;;
18228;SDS011;9239;50.932;3.142;2022-09-09T04:51:17;10.88;;;3.28;;
18228;SDS011;9239;50.932;3.142;2022-09-09T04:53:44;5.32;;;3.13;;
18228;SDS011;9239;50.932;3.142;2022-09-09T04:56:12;6.68;;;3.10;;
18228;SDS011;9239;50.932;3.142;2022-09-09T04:58:40;7.40;;;3.05;;
18228;SDS011;9239;50.932;3.142;2022-09-09T05:01:09;10.30;;;3.55;;
18228;SDS011;9239;50.932;3.142;2022-09-09T05:03:38;9.55;;;3.25;;
18228;SDS011;9239;50.932;3.142;2022-09-09T05:06:05;11.18;;;4.00;;
18228;SDS011;9239;50.932;3.142;2022-09-09T05:08:34;11.70;;;4.38;;
18228;SDS011;9239;50.932;3.142;2022-09-09T05:11:02;10.65;;;3.85;;
18228;SDS011;9239;50.932;3.142;2022-09-09T05:13:29;13.10;;;3.60;;
18228;SDS011;9239;50.932;3.142;2022-09-09T05:15:57;8.98;;;3.75;;
18228;SDS011;9239;50.932;3.142;2022-09-09T05:18:24;10.90;;;3.80;;
18228;SDS011;9239;50.932;3.142;2022-09-09T05:20:56;10.65;;;3.55;;
18228;SDS011;9239;50.932;3.142;2022-09-09T05:23:25;11.20;;;3.83;;
18228;SDS011;9239;50.932;3.142;2022-09-09T05:25:56;10.55;;;3.72;;
18228;SDS011;9239;50.932;3.142;2022-09-09T05:28:23;9.07;;;3.78;;
18228;SDS011;9239;50.932;3.142;2022-09-09T05:30:55;10.68;;;4.03;;
18228;SDS011;9239;50.932;3.142;2022-09-09T05:33:23;7.68;;;3.70;;
18228;SDS011;9239;50.932;3.142;2022-09-09T05:35:56;8.23;;;3.70;;
18228;SDS011;9239;50.932;3.142;2022-09-09T05:38:23;9.50;;;3.72;;
18228;SDS011;9239;50.932;3.142;2022-09-09T05:40:51;12.85;;;3.90;;
18228;SDS011;9239;50.932;3.142;2022-09-09T05:43:18;9.27;;;3.20;;
18228;SDS011;9239;50.932;3.142;2022-09-09T05:45:46;10.88;;;3.78;;
18228;SDS011;9239;50.932;3.142;2022-09-09T05:48:13;8.60;;;3.40;;
18228;SDS011;9239;50.932;3.142;2022-09-09T05:50:41;9.55;;;3.50;;
18228;SDS011;9239;50.932;3.142;2022-09-09T05:53:09;9.98;;;3.92;;
18228;SDS011;9239;50.932;3.142;2022-09-09T05:55:36;10.55;;;3.88;;
18228;SDS011;9239;50.932;3.142;2022-09-09T05:58:03;9.77;;;5.22;;
18228;SDS011;9239;50.932;3.142;2022-09-09T06:00:30;8.95;;;3.28;;
18228;SDS011;9239;50.932;3.142;2022-09-09T06:02:57;7.57;;;3.40;;
18228;SDS011;9239;50.932;3.142;2022-09-09T06:05:25;10.82;;;3.53;;
18228;SDS011;9239;50.932;3.142;2022-09-09T06:07:53;8.40;;;3.63;;
18228;SDS011;9239;50.932;3.142;2022-09-09T06:10:22;8.52;;;4.85;;
18228;SDS011;9239;50.932;3.142;2022-09-09T06:12:52;10.13;;;3.88;;
18228;SDS011;9239;50.932;3.142;2022-09-09T06:15:19;11.25;;;3.88;;
18228;SDS011;9239;50.932;3.142;2022-09-09T06:17:46;7.47;;;3.35;;
18228;SDS011;9239;50.932;3.142;2022-09-09T06:20:14;7.07;;;3.50;;
18228;SDS011;9239;50.932;3.142;2022-09-09T06:22:41;9.23;;;3.83;;
18228;SDS011;9239;50.932;3.142;2022-09-09T06:25:08;10.35;;;3.60;;
18228;SDS011;9239;50.932;3.142;2022-09-09T06:27:37;7.95;;;3.33;;
18228;SDS011;9239;50.932;3.142;2022-09-09T06:30:04;7.65;;;3.10;;
18228;SDS011;9239;50.932;3.142;2022-09-09T06:32:32;6.70;;;3.00;;
18228;SDS011;9239;50.932;3.142;2022-09-09T06:35:01;9.57;;;4.43;;
18228;SDS011;9239;50.932;3.142;2022-09-09T06:37:28;7.18;;;3.92;;
18228;SDS011;9239;50.932;3.142;2022-09-09T06:39:55;10.52;;;3.90;;
18228;SDS011;9239;50.932;3.142;2022-09-09T06:42:22;8.30;;;3.90;;
18228;SDS011;9239;50.932;3.142;2022-09-09T06:44:50;11.73;;;4.05;;
18228;SDS011;9239;50.932;3.142;2022-09-09T06:47:18;12.25;;;3.60;;
18228;SDS011;9239;50.932;3.142;2022-09-09T06:49:44;8.07;;;3.42;;
18228;SDS011;9239;50.932;3.142;2022-09-09T06:52:11;9.23;;;3.58;;
18228;SDS011;9239;50.932;3.142;2022-09-09T06:54:38;11.38;;;4.00;;
18228;SDS011;9239;50.932;3.142;2022-09-09T06:57:05;11.73;;;3.83;;
18228;SDS011;9239;50.932;3.142;2022-09-09T06:59:32;6.20;;;3.45;;
18228;SDS011;9239;50.932;3.142;2022-09-09T07:02:01;13.68;;;4.43;;
18228;SDS011;9239;50.932;3.142;2022-09-09T07:04:28;11.40;;;4.45;;
18228;SDS011;9239;50.932;3.142;2022-09-09T07:06:55;8.15;;;4.18;;
18228;SDS011;9239;50.932;3.142;2022-09-09T07:09:21;11.88;;;4.03;;
18228;SDS011;9239;50.932;3.142;2022-09-09T07:11:49;12.63;;;4.20;;
18228;SDS011;9239;50.932;3.142;2022-09-09T07:14:17;6.55;;;3.40;;
18228;SDS011;9239;50.932;3.142;2022-09-09T07:16:46;8.50;;;3.70;;
18228;SDS011;9239;50.932;3.142;2022-09-09T07:19:14;9.65;;;3.50;;
18228;SDS011;9239;50.932;3.142;2022-09-09T07:21:41;8.30;;;3.25;;
18228;SDS011;9239;50.932;3.142;2022-09-09T07:24:10;10.07;;;3.72;;
18228;SDS011;9239;50.932;3.142;2022-09-09T07:26:37;9.23;;;4.03;;
18228;SDS011;9239;50.932;3.142;2022-09-09T07:29:05;8.50;;;4.22;;
18228;SDS011;9239;50.932;3.142;2022-09-09T07:31:32;8.60;;;4.32;;
18228;SDS011;9239;50.932;3.142;2022-09-09T07:34:01;8.73;;;3.75;;
18228;SDS011;9239;50.932;3.142;2022-09-09T07:36:31;8.38;;;3.88;;
18228;SDS011;9239;50.932;3.142;2022-09-09T07:39:00;6.93;;;3.70;;
18228;SDS011;9239;50.932;3.142;2022-09-09T07:41:29;9.57;;;3.88;;
18228;SDS011;9239;50.932;3.142;2022-09-09T07:43:59;8.45;;;3.88;;
18228;SDS011;9239;50.932;3.142;2022-09-09T07:46:30;8.05;;;3.53;;
18228;SDS011;9239;50.932;3.142;2022-09-09T07:48:57;8.45;;;3.88;;
18228;SDS011;9239;50.932;3.142;2022-09-09T07:51:24;7.43;;;3.42;;
18228;SDS011;9239;50.932;3.142;2022-09-09T07:53:54;9.38;;;4.90;;
18228;SDS011;9239;50.932;3.142;2022-09-09T07:56:22;7.82;;;3.33;;
18228;SDS011;9239;50.932;3.142;2022-09-09T07:58:50;8.73;;;3.33;;
18228;SDS011;9239;50.932;3.142;2022-09-09T08:01:18;5.65;;;3.25;;
18228;SDS011;9239;50.932;3.142;2022-09-09T08:03:46;9.38;;;3.53;;
18228;SDS011;9239;50.932;3.142;2022-09-09T08:06:18;9.43;;;4.55;;
18228;SDS011;9239;50.932;3.142;2022-09-09T08:08:49;8.05;;;5.20;;
18228;SDS011;9239;50.932;3.142;2022-09-09T08:11:17;7.22;;;4.18;;
18228;SDS011;9239;50.932;3.142;2022-09-09T08:13:44;7.97;;;3.70;;
18228;SDS011;9239;50.932;3.142;2022-09-09T08:16:13;7.13;;;3.45;;
18228;SDS011;9239;50.932;3.142;2022-09-09T08:18:41;10.27;;;3.65;;
18228;SDS011;9239;50.932;3.142;2022-09-09T08:21:09;6.15;;;2.80;;
18228;SDS011;9239;50.932;3.142;2022-09-09T08:23:38;6.10;;;3.53;;
18228;SDS011;9239;50.932;3.142;2022-09-09T08:26:06;5.13;;;3.00;;
18228;SDS011;9239;50.932;3.142;2022-09-09T08:28:37;7.13;;;3.20;;
18228;SDS011;9239;50.932;3.142;2022-09-09T08:31:05;6.90;;;3.05;;
18228;SDS011;9239;50.932;3.142;2022-09-09T08:33:36;7.15;;;4.00;;
18228;SDS011;9239;50.932;3.142;2022-09-09T08:36:04;6.40;;;3.10;;
18228;SDS011;9239;50.932;3.142;2022-09-09T08:38:34;4.18;;;3.05;;
18228;SDS011;9239;50.932;3.142;2022-09-09T08:41:07;10.10;;;3.20;;
18228;SDS011;9239;50.932;3.142;2022-09-09T08:43:58;8.05;;;3.05;;
18228;SDS011;9239;50.932;3.142;2022-09-09T08:46:30;7.18;;;2.67;;
18228;SDS011;9239;50.932;3.142;2022-09-09T08:49:05;3.95;;;2.38;;
18228;SDS011;9239;50.932;3.142;2022-09-09T08:51:41;4.00;;;2.63;;
18228;SDS011;9239;50.932;3.142;2022-09-09T08:54:08;3.17;;;2.10;;
18228;SDS011;9239;50.932;3.142;2022-09-09T08:56:36;3.97;;;2.42;;
18228;SDS011;9239;50.932;3.142;2022-09-09T08:59:04;5.82;;;2.00;;
18228;SDS011;9239;50.932;3.142;2022-09-09T09:04:29;2.58;;;1.73;;
18228;SDS011;9239;50.932;3.142;2022-09-09T09:07:06;6.13;;;2.13;;
18228;SDS011;9239;50.932;3.142;2022-09-09T09:09:41;3.40;;;1.92;;
18228;SDS011;9239;50.932;3.142;2022-09-09T09:12:18;4.53;;;2.13;;
18228;SDS011;9239;50.932;3.142;2022-09-09T09:14:49;6.50;;;1.90;;
18228;SDS011;9239;50.932;3.142;2022-09-09T09:17:16;2.75;;;1.85;;
18228;SDS011;9239;50.932;3.142;2022-09-09T09:19:46;5.50;;;2.40;;
18228;SDS011;9239;50.932;3.142;2022-09-09T09:22:16;4.00;;;1.70;;
18228;SDS011;9239;50.932;3.142;2022-09-09T09:24:47;5.47;;;1.83;;
18228;SDS011;9239;50.932;3.142;2022-09-09T09:27:18;3.85;;;1.90;;
18228;SDS011;9239;50.932;3.142;2022-09-09T09:29:53;3.00;;;1.95;;
18228;SDS011;9239;50.932;3.142;2022-09-09T09:32:23;3.92;;;2.20;;
18228;SDS011;9239;50.932;3.142;2022-09-09T09:34:53;3.17;;;1.85;;
18228;SDS011;9239;50.932;3.142;2022-09-09T09:37:23;4.40;;;1.75;;
18228;SDS011;9239;50.932;3.142;2022-09-09T09:39:54;2.83;;;1.55;;
18228;SDS011;9239;50.932;3.142;2022-09-09T09:42:21;3.05;;;1.52;;
18228;SDS011;9239;50.932;3.142;2022-09-09T09:44:49;3.40;;;1.48;;
18228;SDS011;9239;50.932;3.142;2022-09-09T09:47:18;2.58;;;1.77;;
18228;SDS011;9239;50.932;3.142;2022-09-09T09:49:53;4.22;;;1.92;;
18228;SDS011;9239;50.932;3.142;2022-09-09T09:52:21;4.57;;;1.55;;
18228;SDS011;9239;50.932;3.142;2022-09-09T09:54:49;2.03;;;1.30;;
18228;SDS011;9239;50.932;3.142;2022-09-09T09:57:17;4.55;;;1.80;;
18228;SDS011;9239;50.932;3.142;2022-09-09T09:59:59;3.67;;;1.48;;
18228;SDS011;9239;50.932;3.142;2022-09-09T10:02:36;1.95;;;1.45;;
18228;SDS011;9239;50.932;3.142;2022-09-09T10:05:06;2.15;;;1.58;;
18228;SDS011;9239;50.932;3.142;2022-09-09T10:07:39;3.60;;;1.60;;
18228;SDS011;9239;50.932;3.142;2022-09-09T10:10:08;1.58;;;1.40;;
18228;SDS011;9239;50.932;3.142;2022-09-09T10:12:40;2.58;;;1.38;;
18228;SDS011;9239;50.932;3.142;2022-09-09T10:15:21;3.33;;;1.92;;
18228;SDS011;9239;50.932;3.142;2022-09-09T10:17:59;2.25;;;1.40;;
18228;SDS011;9239;50.932;3.142;2022-09-09T10:20:36;1.98;;;1.50;;
18228;SDS011;9239;50.932;3.142;2022-09-09T10:23:13;3.17;;;1.75;;
18228;SDS011;9239;50.932;3.142;2022-09-09T10:26:08;2.53;;;1.40;;
18228;SDS011;9239;50.932;3.142;2022-09-09T10:28:57;3.78;;;1.85;;
18228;SDS011;9239;50.932;3.142;2022-09-09T10:31:37;1.38;;;1.27;;
18228;SDS011;9239;50.932;3.142;2022-09-09T10:34:19;1.95;;;1.40;;
18228;SDS011;9239;50.932;3.142;2022-09-09T10:37:00;3.35;;;1.42;;
18228;SDS011;9239;50.932;3.142;2022-09-09T10:39:34;1.98;;;1.55;;
18228;SDS011;9239;50.932;3.142;2022-09-09T10:42:06;3.03;;;1.70;;
18228;SDS011;9239;50.932;3.142;2022-09-09T10:44:48;4.00;;;1.65;;
18228;SDS011;9239;50.932;3.142;2022-09-09T10:50:33;4.47;;;1.88;;
18228;SDS011;9239;50.932;3.142;2022-09-09T10:53:18;2.38;;;1.20;;
18228;SDS011;9239;50.932;3.142;2022-09-09T10:55:59;3.70;;;1.38;;
18228;SDS011;9239;50.932;3.142;2022-09-09T10:58:32;2.50;;;1.20;;
18228;SDS011;9239;50.932;3.142;2022-09-09T11:01:10;4.10;;;1.63;;
18228;SDS011;9239;50.932;3.142;2022-09-09T11:03:42;2.88;;;1.30;;
18228;SDS011;9239;50.932;3.142;2022-09-09T11:06:14;3.88;;;1.80;;
18228;SDS011;9239;50.932;3.142;2022-09-09T11:08:44;2.75;;;1.38;;
18228;SDS011;9239;50.932;3.142;2022-09-09T11:11:13;3.35;;;1.40;;
18228;SDS011;9239;50.932;3.142;2022-09-09T11:13:45;2.47;;;1.35;;
18228;SDS011;9239;50.932;3.142;2022-09-09T11:16:22;1.63;;;1.33;;
18228;SDS011;9239;50.932;3.142;2022-09-09T11:18:55;3.17;;;1.00;;
18228;SDS011;9239;50.932;3.142;2022-09-09T11:21:27;2.58;;;1.23;;
18228;SDS011;9239;50.932;3.142;2022-09-09T11:23:57;2.40;;;1.33;;
18228;SDS011;9239;50.932;3.142;2022-09-09T11:26:30;2.05;;;1.40;;
18228;SDS011;9239;50.932;3.142;2022-09-09T11:31:55;2.00;;;1.30;;
18228;SDS011;9239;50.932;3.142;2022-09-09T11:34:34;2.00;;;1.13;;
18228;SDS011;9239;50.932;3.142;2022-09-09T11:37:20;2.60;;;1.40;;
18228;SDS011;9239;50.932;3.142;2022-09-09T11:40:17;3.13;;;1.60;;
18228;SDS011;9239;50.932;3.142;2022-09-09T11:42:48;2.22;;;1.77;;
18228;SDS011;9239;50.932;3.142;2022-09-09T11:45:27;2.55;;;1.58;;
18228;SDS011;9239;50.932;3.142;2022-09-09T11:47:56;4.13;;;2.10;;
18228;SDS011;9239;50.932;3.142;2022-09-09T11:50:28;4.43;;;1.70;;
18228;SDS011;9239;50.932;3.142;2022-09-09T11:53:15;4.35;;;2.50;;
18228;SDS011;9239;50.932;3.142;2022-09-09T11:55:47;3.63;;;1.55;;
18228;SDS011;9239;50.932;3.142;2022-09-09T11:58:25;3.60;;;2.08;;
18228;SDS011;9239;50.932;3.142;2022-09-09T12:00:54;6.95;;;2.30;;
18228;SDS011;9239;50.932;3.142;2022-09-09T12:03:38;3.05;;;2.30;;
18228;SDS011;9239;50.932;3.142;2022-09-09T12:06:12;4.07;;;2.15;;
18228;SDS011;9239;50.932;3.142;2022-09-09T12:08:45;4.55;;;2.03;;
18228;SDS011;9239;50.932;3.142;2022-09-09T12:11:23;3.15;;;2.30;;
18228;SDS011;9239;50.932;3.142;2022-09-09T12:13:54;5.38;;;2.30;;
18228;SDS011;9239;50.932;3.142;2022-09-09T12:16:29;3.72;;;2.35;;
18228;SDS011;9239;50.932;3.142;2022-09-09T12:19:03;3.92;;;2.47;;
18228;SDS011;9239;50.932;3.142;2022-09-09T12:21:33;4.95;;;2.65;;
18228;SDS011;9239;50.932;3.142;2022-09-09T12:24:08;3.38;;;2.40;;
18228;SDS011;9239;50.932;3.142;2022-09-09T12:26:37;3.92;;;2.40;;
18228;SDS011;9239;50.932;3.142;2022-09-09T12:29:12;4.00;;;2.45;;
18228;SDS011;9239;50.932;3.142;2022-09-09T12:31:48;4.60;;;2.53;;
18228;SDS011;9239;50.932;3.142;2022-09-09T12:34:24;3.03;;;2.13;;
18228;SDS011;9239;50.932;3.142;2022-09-09T12:36:59;5.68;;;2.67;;
18228;SDS011;9239;50.932;3.142;2022-09-09T12:39:33;4.72;;;3.10;;
18228;SDS011;9239;50.932;3.142;2022-09-09T12:42:04;3.38;;;2.20;;
18228;SDS011;9239;50.932;3.142;2022-09-09T12:44:31;3.45;;;2.33;;
18228;SDS011;9239;50.932;3.142;2022-09-09T12:46:59;4.07;;;2.83;;
18228;SDS011;9239;50.932;3.142;2022-09-09T12:49:30;3.20;;;2.30;;
18228;SDS011;9239;50.932;3.142;2022-09-09T12:52:01;4.47;;;2.30;;
18228;SDS011;9239;50.932;3.142;2022-09-09T12:54:31;4.22;;;2.67;;
18228;SDS011;9239;50.932;3.142;2022-09-09T12:57:00;2.25;;;1.95;;
18228;SDS011;9239;50.932;3.142;2022-09-09T12:59:34;3.45;;;2.22;;
18228;SDS011;9239;50.932;3.142;2022-09-09T13:02:11;4.43;;;2.08;;
18228;SDS011;9239;50.932;3.142;2022-09-09T13:04:44;6.38;;;2.80;;
18228;SDS011;9239;50.932;3.142;2022-09-09T13:07:11;4.47;;;1.67;;
18228;SDS011;9239;50.932;3.142;2022-09-09T13:09:42;3.67;;;2.10;;
18228;SDS011;9239;50.932;3.142;2022-09-09T13:12:11;2.70;;;2.10;;
18228;SDS011;9239;50.932;3.142;2022-09-09T13:14:42;7.35;;;2.92;;
18228;SDS011;9239;50.932;3.142;2022-09-09T13:17:15;5.18;;;2.72;;
18228;SDS011;9239;50.932;3.142;2022-09-09T13:19:46;5.57;;;2.88;;
18228;SDS011;9239;50.932;3.142;2022-09-09T13:22:19;7.22;;;3.28;;
18228;SDS011;9239;50.932;3.142;2022-09-09T13:24:59;3.95;;;2.40;;
18228;SDS011;9239;50.932;3.142;2022-09-09T13:27:31;5.65;;;2.42;;
18228;SDS011;9239;50.932;3.142;2022-09-09T13:29:59;5.22;;;2.30;;
18228;SDS011;9239;50.932;3.142;2022-09-09T13:32:27;4.47;;;2.33;;
18228;SDS011;9239;50.932;3.142;2022-09-09T13:34:56;2.95;;;2.40;;
18228;SDS011;9239;50.932;3.142;2022-09-09T13:37:31;5.38;;;2.63;;
18228;SDS011;9239;50.932;3.142;2022-09-09T13:40:02;5.82;;;2.80;;
18228;SDS011;9239;50.932;3.142;2022-09-09T13:42:31;5.07;;;3.00;;
18228;SDS011;9239;50.932;3.142;2022-09-09T13:45:00;3.25;;;2.92;;
18228;SDS011;9239;50.932;3.142;2022-09-09T13:47:30;3.05;;;2.20;;
18228;SDS011;9239;50.932;3.142;2022-09-09T13:50:09;4.50;;;1.88;;
18228;SDS011;9239;50.932;3.142;2022-09-09T13:52:44;2.88;;;1.50;;
18228;SDS011;9239;50.932;3.142;2022-09-09T13:55:13;3.42;;;1.70;;
18228;SDS011;9239;50.932;3.142;2022-09-09T13:57:49;4.28;;;1.52;;
18228;SDS011;9239;50.932;3.142;2022-09-09T14:00:17;7.07;;;1.77;;
18228;SDS011;9239;50.932;3.142;2022-09-09T14:02:44;2.50;;;1.35;;
18228;SDS011;9239;50.932;3.142;2022-09-09T14:05:11;2.22;;;1.25;;
18228;SDS011;9239;50.932;3.142;2022-09-09T14:07:38;3.38;;;1.20;;
18228;SDS011;9239;50.932;3.142;2022-09-09T14:10:07;1.88;;;1.23;;
18228;SDS011;9239;50.932;3.142;2022-09-09T14:12:35;2.72;;;1.45;;
18228;SDS011;9239;50.932;3.142;2022-09-09T14:15:02;2.45;;;1.17;;
18228;SDS011;9239;50.932;3.142;2022-09-09T14:17:30;2.15;;;1.20;;
18228;SDS011;9239;50.932;3.142;2022-09-09T14:19:57;2.78;;;1.60;;
18228;SDS011;9239;50.932;3.142;2022-09-09T14:22:24;4.38;;;1.20;;
18228;SDS011;9239;50.932;3.142;2022-09-09T14:24:51;2.65;;;1.50;;
18228;SDS011;9239;50.932;3.142;2022-09-09T14:27:18;3.13;;;1.17;;
18228;SDS011;9239;50.932;3.142;2022-09-09T14:29:46;1.40;;;1.30;;
18228;SDS011;9239;50.932;3.142;2022-09-09T14:32:13;2.20;;;1.20;;
18228;SDS011;9239;50.932;3.142;2022-09-09T14:34:40;1.80;;;1.27;;
18228;SDS011;9239;50.932;3.142;2022-09-09T14:37:07;2.30;;;1.30;;
18228;SDS011;9239;50.932;3.142;2022-09-09T14:39:34;2.80;;;1.40;;
18228;SDS011;9239;50.932;3.142;2022-09-09T14:42:00;2.33;;;1.08;;
18228;SDS011;9239;50.932;3.142;2022-09-09T14:44:27;2.95;;;1.60;;
18228;SDS011;9239;50.932;3.142;2022-09-09T14:46:56;1.95;;;1.40;;
18228;SDS011;9239;50.932;3.142;2022-09-09T14:49:23;3.00;;;1.58;;
18228;SDS011;9239;50.932;3.142;2022-09-09T14:51:50;2.22;;;1.33;;
18228;SDS011;9239;50.932;3.142;2022-09-09T14:54:17;3.03;;;2.10;;
18228;SDS011;9239;50.932;3.142;2022-09-09T14:56:44;3.22;;;1.52;;
18228;SDS011;9239;50.932;3.142;2022-09-09T14:59:12;1.77;;;1.67;;
18228;SDS011;9239;50.932;3.142;2022-09-09T15:01:39;3.47;;;2.20;;
18228;SDS011;9239;50.932;3.142;2022-09-09T15:04:07;3.47;;;2.13;;
18228;SDS011;9239;50.932;3.142;2022-09-09T15:06:37;3.85;;;1.70;;
18228;SDS011;9239;50.932;3.142;2022-09-09T15:09:06;5.15;;;1.80;;
18228;SDS011;9239;50.932;3.142;2022-09-09T15:11:34;3.65;;;1.85;;
18228;SDS011;9239;50.932;3.142;2022-09-09T15:14:03;2.00;;;1.40;;
18228;SDS011;9239;50.932;3.142;2022-09-09T15:16:30;2.25;;;1.73;;
18228;SDS011;9239;50.932;3.142;2022-09-09T15:18:58;2.70;;;1.58;;
18228;SDS011;9239;50.932;3.142;2022-09-09T15:21:28;2.65;;;2.25;;
18228;SDS011;9239;50.932;3.142;2022-09-09T15:23:56;2.80;;;2.22;;
18228;SDS011;9239;50.932;3.142;2022-09-09T15:26:23;2.65;;;2.30;;
18228;SDS011;9239;50.932;3.142;2022-09-09T15:28:51;4.35;;;3.08;;
18228;SDS011;9239;50.932;3.142;2022-09-09T15:31:19;3.75;;;2.83;;
18228;SDS011;9239;50.932;3.142;2022-09-09T15:33:47;4.32;;;2.83;;